Flight Track Log - Related Links

Times and Time Zones

All times are in EDT time to prevent confusion due to time zone crossing. See the KAP528 flight status page for this flight to view local times or setup timezone preferences in your user account.

Time Position Orientation Groundspeed Altitude Reporting Facility
EDT Latitude Longitude Course Direction KTS MPH feet Rate Location/Type
Tue 01:07:50 PM 44.6056 -75.3589 155° Southeast 154 177 4,600  Level Boston Center
Tue 01:08:51 PM 44.5753 -75.3253 142° Southeast 149 171 5,800 1,388 Climbing Boston Center
Tue 01:09:51 PM 44.5511 -75.2864 131° Southeast 143 165 7,400 1,412 Climbing Boston Center
Tue 01:10:50 PM 44.5206 -75.2586 147° Southeast 138 159 8,600 1,000 Climbing Boston Center
Tue 01:11:51 PM 44.4881 -75.2308 149° Southeast 133 153 9,400 744 Climbing Boston Center
Tue 01:12:00 PM 44.7833 -75.1002 68° East  Level FlightAware Approximate
Tue 01:12:51 PM 44.4533 -75.2000 148° Southeast 133 153 10,100  Level Boston Center
Tue 01:13:00 PM 44.7477 -75.0767 155° Southeast  Level Estimated
Tue 01:13:50 PM 44.4206 -75.1725 149° Southeast 138 159 10,800  Level Boston Center
Tue 01:14:50 PM 44.3858 -75.1389 145° Southeast 143 165 11,400 397 Climbing Boston Center
Tue 01:15:51 PM 44.3472 -75.1053 148° Southeast 148 170 11,600 100 Climbing Boston Center
Tue 01:16:50 PM 44.3064 -75.0686 147° Southeast 167 192 11,600  Level Boston Center
Tue 01:17:51 PM 44.2636 -75.0261 145° Southeast 178 205 11,600  Level Boston Center
Tue 01:18:51 PM 44.2206 -74.9894 149° Southeast 183 211 11,600  Level Boston Center
Tue 01:19:50 PM 44.1778 -74.9500 147° Southeast 183 211 11,600  Level Boston Center
Tue 01:20:51 PM 44.1347 -74.9106 147° Southeast 183 211 11,600  Level Boston Center
Tue 01:21:51 PM 44.0897 -74.8739 150° Southeast 183 211 11,600  Level Boston Center
Tue 01:22:50 PM 44.0489 -74.8375 147° Southeast 183 211 11,600  Level Boston Center
Tue 01:23:50 PM 44.0017 -74.8011 151° Southeast 183 211 11,600  Level Boston Center
Tue 01:24:51 PM 43.9586 -74.7647 149° Southeast 183 211 11,600  Level Boston Center
Tue 01:25:51 PM 43.9156 -74.7286 149° Southeast 178 205 11,600  Level Boston Center
Tue 01:26:50 PM 43.8706 -74.6922 150° Southeast 178 205 11,600  Level Boston Center
Tue 01:27:51 PM 43.8294 -74.6533 146° Southeast 178 205 11,600  Level Boston Center
Tue 01:28:51 PM 43.7822 -74.6228 155° Southeast 178 205 11,600  Level Boston Center
Tue 01:29:51 PM 43.7347 -74.5981 159° South 178 205 11,600  Level Boston Center
Tue 01:30:50 PM 43.6894 -74.5706 156° South 178 205 11,600  Level Boston Center
Tue 01:31:51 PM 43.6442 -74.5344 150° Southeast 178 205 11,600 -198 Level Boston Center
Tue 01:32:51 PM 43.6011 -74.5014 151° Southeast 178 205 11,200 -350 Descending Boston Center
Tue 01:33:51 PM 43.5581 -74.4600 145° Southeast 178 205 10,900 -353 Descending Boston Center
Tue 01:34:50 PM 43.5192 -74.4186 142° Southeast 183 211 10,500 -400 Descending Boston Center
Tue 01:35:51 PM 43.4761 -74.3800 147° Southeast 183 211 10,100 -347 Descending Boston Center
Tue 01:36:51 PM 43.4350 -74.3414 146° Southeast 188 216 9,800 -316 Descending Boston Center
Tue 01:37:07 PM 43.4225 -74.3353 160° South 180 207 9,700 -400 Descending Boston Center
Tue 01:37:51 PM 43.3897 -74.3086 149° Southeast 188 216 9,400 -408 Descending Boston Center
Tue 01:38:50 PM 43.3464 -74.2817 156° South 183 211 9,000 -450 Descending Boston Center
Tue 01:39:51 PM 43.3011 -74.2403 146° Southeast 178 205 8,500 -446 Descending Boston Center
Tue 01:40:51 PM 43.2578 -74.2106 153° Southeast 181 208 8,100 -400 Descending Boston Center
Tue 01:40:51 PM 43.2578 -74.2106 153° Southeast 178 205 8,100 -436 Level Boston Center
Tue 01:41:46 PM 43.2167 -74.1808 152° Southeast 179 206 7,700 -414 Descending Boston Center
Tue 01:42:47 PM 43.1733 -74.1483 151° Southeast 175 201 7,300 -347 Descending Boston Center
Tue 01:43:47 PM 43.1322 -74.1131 148° Southeast 170 196 7,000 -339 Descending Boston Center
Tue 01:44:51 PM 43.0889 -74.0806 151° Southeast 178 205 6,600 -339 Descending Boston Center
Tue 01:45:51 PM 43.0539 -74.0539 151° Southeast 178 205 6,300 -429 Descending Boston Center
Tue 01:46:43 PM 43.0064 -74.0217 154° Southeast 185 213 5,800 -400 Descending Boston Center
Tue 01:47:51 PM 42.9522 -74.0117 172° South 172 198 5,500 -393 Descending Boston Center
Tue 01:48:45 PM 42.9147 -74.0219 191° South 164 189 5,000 -655 Descending Boston Center
Tue 01:49:50 PM 42.8686 -74.0322 189° South 162 186 4,200 -689 Descending Boston Center
Tue 01:50:47 PM 42.8375 -74.0200 164° South 125 144 3,600 -308 Descending Boston Center
Tue 01:51:47 PM 42.8089 -73.9881 141° Southeast 125 144 3,600 -198 Level Boston Center
Tue 01:52:48 PM 42.7781 -73.9564 143° Southeast 145 167 3,200 -344 Descending Boston Center
Tue 01:53:49 PM 42.7408 -73.9328 155° Southeast 152 175 2,900 -393 Descending Boston Center
Tue 01:54:50 PM 42.7161 -73.8953 132° Southeast 134 154 2,400 -590 Descending Boston Center
Tue 01:55:51 PM 42.7128 -73.8444 95° East 117 135 1,700 -793 Descending Boston Center
Tue 01:56:51 PM 42.7236 -73.8081 68° East 120 138 800 -900 Descending Boston Center
Tue 01:58:00 PM 42.7491 -73.8020 31° Northeast  Level Estimated
Tue 02:05:00 PM 42.7491 -73.8020 160° South  Level Estimated
Tue 02:06:00 PM 42.7491 -73.8020 160° South  Level Estimated
Tue 02:07:00 PM 42.7491 -73.8020 160° South  Level Estimated
Tue 02:08:00 PM 42.7491 -73.8020 160° South  Level Estimated

Login

Don't have an account? Register now (free) for customized features, flight alerts, and more!